Time;durP1;ratioP1;P1;durP2;ratioP2;P2;SDS_P1;SDS_P2;PMS_P1;PMS_P2;Temp;Humidity;BMP_temperature;BMP_pressure;BME280_temperature;BME280_humidity;BME280_pressure;Samples;Min_cycle;Max_cycle;Signal;HPM_P1;HPM_P2
2023/06/29 00:01:00;;;;;;;2.35;1.20;;;;;;;;;;5016312;28;20556;-58
2023/06/29 00:03:27;;;;;;;1.30;1.13;;;;;;;;;;5016763;28;20444;-58
2023/06/29 00:05:55;;;;;;;2.33;1.10;;;;;;;;;;5015941;28;20223;-59
2023/06/29 00:08:21;;;;;;;2.25;1.13;;;;;;;;;;5012232;28;20203;-59
2023/06/29 00:10:47;;;;;;;1.50;1.02;;;;;;;;;;5016385;28;20195;-58
2023/06/29 00:13:13;;;;;;;2.53;1.05;;;;;;;;;;5016068;28;20279;-59
2023/06/29 00:15:39;;;;;;;2.50;1.15;;;;;;;;;;5015313;28;20177;-59
2023/06/29 00:18:04;;;;;;;1.98;1.30;;;;;;;;;;5015160;28;20223;-59
2023/06/29 00:20:30;;;;;;;1.83;1.20;;;;;;;;;;5017752;28;20184;-58
2023/06/29 00:22:57;;;;;;;2.05;1.20;;;;;;;;;;5015821;28;20460;-59
2023/06/29 00:25:23;;;;;;;2.30;1.17;;;;;;;;;;5016250;28;20491;-58
2023/06/29 00:27:49;;;;;;;1.23;1.05;;;;;;;;;;5014489;28;20184;-59
2023/06/29 00:30:15;;;;;;;2.08;1.25;;;;;;;;;;5015699;28;20484;-58
2023/06/29 00:32:41;;;;;;;1.30;1.20;;;;;;;;;;5015344;28;20192;-58
2023/06/29 00:35:07;;;;;;;2.30;1.35;;;;;;;;;;5016135;28;20471;-58
2023/06/29 00:37:33;;;;;;;1.20;1.10;;;;;;;;;;5015941;28;20575;-58
2023/06/29 00:39:59;;;;;;;1.77;1.25;;;;;;;;;;5016952;28;20258;-58
2023/06/29 00:42:25;;;;;;;1.38;1.08;;;;;;;;;;5015412;28;20312;-57
2023/06/29 00:44:51;;;;;;;1.20;1.10;;;;;;;;;;5015844;28;20206;-58
2023/06/29 00:47:17;;;;;;;2.95;1.30;;;;;;;;;;5015571;28;20263;-58
2023/06/29 00:49:42;;;;;;;1.77;1.10;;;;;;;;;;5015766;28;20235;-58
2023/06/29 00:52:08;;;;;;;2.72;1.40;;;;;;;;;;5015487;28;20196;-58
2023/06/29 00:54:35;;;;;;;1.77;1.17;;;;;;;;;;5015275;28;20254;-58
2023/06/29 00:57:01;;;;;;;1.70;1.27;;;;;;;;;;5016381;28;20192;-59
2023/06/29 00:59:26;;;;;;;1.65;0.82;;;;;;;;;;5018969;28;20188;-57
2023/06/29 01:01:52;;;;;;;4.68;1.52;;;;;;;;;;5015484;28;20255;-58
2023/06/29 01:04:22;;;;;;;1.55;1.23;;;;;;;;;;5021418;28;20177;-58
2023/06/29 01:06:58;;;;;;;1.25;0.98;;;;;;;;;;5014209;28;20173;-58
2023/06/29 01:09:25;;;;;;;1.52;1.30;;;;;;;;;;5019497;28;20630;-58
2023/06/29 01:11:51;;;;;;;1.58;1.13;;;;;;;;;;5018115;28;20200;-58
2023/06/29 01:14:18;;;;;;;1.67;1.20;;;;;;;;;;5016621;28;20192;-58
2023/06/29 01:16:44;;;;;;;1.73;1.10;;;;;;;;;;5025209;28;20191;-58
2023/06/29 01:19:11;;;;;;;1.10;1.00;;;;;;;;;;5014931;28;20208;-57
2023/06/29 01:21:40;;;;;;;1.50;1.10;;;;;;;;;;5014965;28;20193;-58
2023/06/29 01:24:07;;;;;;;1.98;1.10;;;;;;;;;;5014766;28;20180;-58
2023/06/29 01:26:33;;;;;;;1.98;1.10;;;;;;;;;;5019652;28;20218;-58
2023/06/29 01:28:59;;;;;;;2.13;1.10;;;;;;;;;;5017234;28;20184;-58
2023/06/29 01:31:26;;;;;;;2.67;1.35;;;;;;;;;;5015282;28;20185;-58
2023/06/29 01:33:53;;;;;;;1.58;1.17;;;;;;;;;;5013606;28;20176;-58
2023/06/29 01:36:21;;;;;;;2.75;1.40;;;;;;;;;;5018367;28;20185;-58
2023/06/29 01:39:08;;;;;;;2.85;1.25;;;;;;;;;;5015133;28;20208;-58
2023/06/29 01:41:38;;;;;;;1.30;0.88;;;;;;;;;;5020553;28;20540;-58
2023/06/29 01:44:05;;;;;;;1.35;1.20;;;;;;;;;;5014455;28;20203;-58
2023/06/29 01:46:31;;;;;;;1.17;1.08;;;;;;;;;;5013635;28;20176;-58
2023/06/29 01:48:57;;;;;;;2.03;1.13;;;;;;;;;;5015051;28;20188;-58
2023/06/29 01:51:23;;;;;;;2.10;1.23;;;;;;;;;;5014107;28;20501;-58
2023/06/29 01:53:50;;;;;;;1.73;1.10;;;;;;;;;;5014633;28;20184;-58
2023/06/29 01:56:16;;;;;;;1.88;1.20;;;;;;;;;;5013463;28;20226;-58
2023/06/29 01:58:42;;;;;;;1.60;1.38;;;;;;;;;;5014292;28;20196;-59
2023/06/29 02:01:08;;;;;;;3.20;1.00;;;;;;;;;;5000735;28;20208;-59
2023/06/29 02:03:33;;;;;;;1.10;1.00;;;;;;;;;;5014726;28;20614;-58
2023/06/29 02:05:59;;;;;;;1.25;1.10;;;;;;;;;;5013914;28;20180;-59
2023/06/29 02:08:25;;;;;;;1.30;1.08;;;;;;;;;;5014147;28;20192;-58
2023/06/29 02:10:51;;;;;;;1.65;1.33;;;;;;;;;;5014415;28;20231;-58
2023/06/29 02:13:17;;;;;;;0.80;0.80;;;;;;;;;;5014555;28;20291;-58
2023/06/29 02:15:43;;;;;;;0.82;0.82;;;;;;;;;;5014207;28;20195;-58
2023/06/29 02:18:09;;;;;;;1.55;1.00;;;;;;;;;;5013783;28;20252;-59
2023/06/29 02:20:35;;;;;;;1.23;1.13;;;;;;;;;;5014162;28;20472;-59
2023/06/29 02:23:01;;;;;;;1.02;1.00;;;;;;;;;;5013957;28;20212;-58
2023/06/29 02:25:27;;;;;;;1.88;1.20;;;;;;;;;;5016508;28;20234;-58
2023/06/29 02:27:53;;;;;;;1.00;0.90;;;;;;;;;;5013597;28;20192;-58
2023/06/29 02:30:19;;;;;;;1.17;1.08;;;;;;;;;;5014090;28;20463;-58
2023/06/29 02:32:45;;;;;;;1.20;1.10;;;;;;;;;;5013497;28;20192;-58
2023/06/29 02:35:10;;;;;;;2.53;1.33;;;;;;;;;;5014303;28;20223;-58
2023/06/29 02:37:36;;;;;;;1.35;1.20;;;;;;;;;;5013151;28;20200;-59
2023/06/29 02:40:02;;;;;;;2.00;1.10;;;;;;;;;;5013276;28;20185;-58
2023/06/29 02:42:28;;;;;;;2.25;1.10;;;;;;;;;;5013745;28;20473;-58
2023/06/29 02:44:54;;;;;;;1.00;0.90;;;;;;;;;;5014027;28;20196;-58
2023/06/29 02:47:20;;;;;;;1.35;1.10;;;;;;;;;;5011204;28;20215;-58
2023/06/29 02:49:46;;;;;;;0.85;0.85;;;;;;;;;;5020109;28;20567;-59
2023/06/29 02:52:12;;;;;;;1.40;1.23;;;;;;;;;;5017288;28;20191;-59
2023/06/29 02:54:38;;;;;;;0.95;0.95;;;;;;;;;;5017956;28;20446;-58
2023/06/29 02:57:04;;;;;;;3.30;1.33;;;;;;;;;;5016900;28;20915;-59
2023/06/29 02:59:30;;;;;;;1.20;1.08;;;;;;;;;;5022241;28;20180;-59
2023/06/29 03:01:56;;;;;;;2.00;0.98;;;;;;;;;;5021773;28;20249;-59
2023/06/29 03:04:22;;;;;;;1.10;1.02;;;;;;;;;;5018807;28;20193;-58
2023/06/29 03:06:47;;;;;;;1.23;1.13;;;;;;;;;;5016073;28;20195;-58
2023/06/29 03:09:13;;;;;;;3.70;1.23;;;;;;;;;;5015518;28;20184;-58
2023/06/29 03:11:39;;;;;;;2.08;1.30;;;;;;;;;;5019715;28;20200;-58
2023/06/29 03:14:05;;;;;;;1.27;1.17;;;;;;;;;;5017435;28;20208;-58
2023/06/29 03:16:31;;;;;;;5.15;0.93;;;;;;;;;;5017245;28;20187;-58
2023/06/29 03:18:57;;;;;;;1.40;1.17;;;;;;;;;;5020524;28;20212;-58
2023/06/29 03:21:23;;;;;;;4.35;1.20;;;;;;;;;;5023400;28;20197;-58
2023/06/29 03:23:49;;;;;;;1.33;1.00;;;;;;;;;;5017034;28;20184;-58
2023/06/29 03:26:15;;;;;;;1.55;0.93;;;;;;;;;;5016478;28;20235;-58
2023/06/29 03:28:41;;;;;;;1.67;1.08;;;;;;;;;;5021879;28;20180;-58
2023/06/29 03:31:07;;;;;;;1.77;1.10;;;;;;;;;;5019700;28;20180;-59
2023/06/29 03:33:33;;;;;;;1.50;1.17;;;;;;;;;;5016654;28;20176;-59
2023/06/29 03:35:59;;;;;;;2.85;1.08;;;;;;;;;;5016299;28;20185;-59
2023/06/29 03:38:25;;;;;;;2.22;1.15;;;;;;;;;;5018464;28;20204;-59
2023/06/29 03:40:51;;;;;;;1.10;1.00;;;;;;;;;;5017637;28;20185;-60
2023/06/29 03:43:17;;;;;;;8.60;2.58;;;;;;;;;;5017100;28;20201;-60
2023/06/29 03:45:42;;;;;;;7.60;1.55;;;;;;;;;;5016607;28;20177;-59
2023/06/29 03:48:08;;;;;;;4.72;1.80;;;;;;;;;;5015897;28;20188;-58
2023/06/29 03:50:34;;;;;;;4.97;1.60;;;;;;;;;;5020830;28;20218;-58
2023/06/29 03:53:01;;;;;;;4.35;1.40;;;;;;;;;;5020464;28;20271;-58
2023/06/29 03:55:27;;;;;;;7.03;1.60;;;;;;;;;;5006093;28;20172;-58
2023/06/29 03:57:54;;;;;;;5.65;1.70;;;;;;;;;;5016088;28;20207;-59
2023/06/29 04:00:20;;;;;;;8.70;2.33;;;;;;;;;;5020323;28;20459;-59
2023/06/29 04:02:46;;;;;;;4.93;1.75;;;;;;;;;;5015496;28;20183;-59
2023/06/29 04:05:12;;;;;;;3.30;1.80;;;;;;;;;;5015997;28;20310;-59
2023/06/29 04:07:38;;;;;;;5.05;1.90;;;;;;;;;;5018105;28;20274;-59
2023/06/29 04:10:04;;;;;;;7.72;2.25;;;;;;;;;;5019857;28;20204;-59
2023/06/29 04:12:30;;;;;;;5.10;1.73;;;;;;;;;;5016248;28;20195;-59
2023/06/29 04:14:56;;;;;;;4.53;1.73;;;;;;;;;;5016636;28;20184;-58
2023/06/29 04:17:22;;;;;;;3.22;1.50;;;;;;;;;;5015674;28;20432;-59
2023/06/29 04:19:48;;;;;;;3.83;1.58;;;;;;;;;;5016186;28;20567;-59
2023/06/29 04:22:13;;;;;;;3.22;1.65;;;;;;;;;;5015228;28;20192;-59
2023/06/29 04:24:40;;;;;;;2.78;1.40;;;;;;;;;;5016415;28;20205;-58
2023/06/29 04:27:06;;;;;;;2.90;1.48;;;;;;;;;;5015270;28;20195;-59
2023/06/29 04:29:32;;;;;;;2.08;1.30;;;;;;;;;;5016101;28;20502;-59
2023/06/29 04:31:58;;;;;;;2.97;1.35;;;;;;;;;;5014912;28;20441;-59
2023/06/29 04:34:24;;;;;;;4.50;1.38;;;;;;;;;;5015173;28;20242;-59
2023/06/29 04:36:50;;;;;;;3.38;1.60;;;;;;;;;;5015575;28;20181;-59
2023/06/29 04:39:16;;;;;;;4.07;1.58;;;;;;;;;;5019172;28;20294;-59
2023/06/29 04:41:43;;;;;;;3.92;1.35;;;;;;;;;;5015807;28;20267;-59
2023/06/29 04:44:09;;;;;;;3.55;1.40;;;;;;;;;;5015367;28;20180;-59
2023/06/29 04:46:38;;;;;;;3.03;1.50;;;;;;;;;;5016661;28;20181;-60
2023/06/29 04:49:07;;;;;;;4.38;1.48;;;;;;;;;;5015820;28;20181;-59
2023/06/29 04:51:39;;;;;;;2.17;1.08;;;;;;;;;;4995292;28;20496;-59
2023/06/29 04:54:05;;;;;;;3.63;1.48;;;;;;;;;;5015706;28;20606;-60
2023/06/29 04:56:32;;;;;;;2.42;1.20;;;;;;;;;;5014573;28;20274;-59
2023/06/29 04:58:58;;;;;;;2.60;1.25;;;;;;;;;;5017384;28;20203;-59
2023/06/29 05:01:24;;;;;;;1.55;1.35;;;;;;;;;;5022736;28;20176;-60
2023/06/29 05:03:50;;;;;;;2.47;1.38;;;;;;;;;;5015550;28;20180;-60
2023/06/29 05:06:16;;;;;;;1.38;1.13;;;;;;;;;;5014076;28;20223;-59
2023/06/29 05:08:42;;;;;;;2.47;1.30;;;;;;;;;;5016219;28;20200;-59
2023/06/29 05:11:08;;;;;;;1.20;1.10;;;;;;;;;;5018868;28;20452;-59
2023/06/29 05:13:35;;;;;;;1.73;1.10;;;;;;;;;;5017125;28;20203;-60
2023/06/29 05:16:02;;;;;;;1.98;1.30;;;;;;;;;;5017880;28;20217;-59
2023/06/29 05:18:28;;;;;;;1.55;1.10;;;;;;;;;;5018341;28;20291;-59
2023/06/29 05:20:54;;;;;;;2.28;1.20;;;;;;;;;;5025093;28;20501;-59
2023/06/29 05:23:20;;;;;;;2.30;1.20;;;;;;;;;;5013865;28;20232;-59
2023/06/29 05:25:46;;;;;;;2.25;1.10;;;;;;;;;;5015075;28;20177;-59
2023/06/29 05:28:12;;;;;;;2.78;1.08;;;;;;;;;;5012972;28;20184;-59
2023/06/29 05:30:38;;;;;;;0.90;0.90;;;;;;;;;;5015649;28;20191;-59
2023/06/29 05:33:04;;;;;;;1.63;1.20;;;;;;;;;;5014841;28;20184;-59
2023/06/29 05:35:31;;;;;;;1.02;0.85;;;;;;;;;;5019991;28;20196;-59
2023/06/29 05:37:57;;;;;;;2.80;1.63;;;;;;;;;;5014687;28;20199;-59
2023/06/29 05:40:23;;;;;;;2.33;1.20;;;;;;;;;;5014985;28;20184;-59
2023/06/29 05:42:49;;;;;;;2.08;1.20;;;;;;;;;;5014792;28;20248;-60
2023/06/29 05:45:15;;;;;;;1.75;1.08;;;;;;;;;;5014301;28;20457;-59
2023/06/29 05:47:41;;;;;;;1.67;1.30;;;;;;;;;;5014490;28;20551;-59
2023/06/29 05:50:07;;;;;;;1.77;1.02;;;;;;;;;;4998078;28;20184;-60
2023/06/29 05:52:33;;;;;;;0.90;0.90;;;;;;;;;;5014710;28;20223;-59
2023/06/29 05:55:00;;;;;;;1.10;1.00;;;;;;;;;;5014530;28;20176;-59
2023/06/29 05:57:25;;;;;;;1.38;1.02;;;;;;;;;;5013614;28;20208;-59
2023/06/29 05:59:51;;;;;;;1.65;0.98;;;;;;;;;;5014415;28;20184;-59
2023/06/29 06:02:17;;;;;;;1.27;1.02;;;;;;;;;;5014894;28;20193;-59
2023/06/29 06:04:43;;;;;;;1.20;1.08;;;;;;;;;;5014489;28;20168;-60
2023/06/29 06:07:10;;;;;;;1.80;1.17;;;;;;;;;;5013721;28;20267;-59
2023/06/29 06:09:36;;;;;;;1.95;0.93;;;;;;;;;;4996728;28;20208;-59
2023/06/29 06:12:05;;;;;;;2.13;0.80;;;;;;;;;;5014022;28;20195;-59
2023/06/29 06:14:31;;;;;;;2.53;1.13;;;;;;;;;;5013200;28;20185;-59
2023/06/29 06:16:57;;;;;;;1.08;0.98;;;;;;;;;;5013304;28;20453;-59
2023/06/29 06:19:23;;;;;;;1.83;0.93;;;;;;;;;;5013671;28;20215;-59
2023/06/29 06:21:48;;;;;;;2.38;0.88;;;;;;;;;;5013719;28;20204;-59
2023/06/29 06:24:14;;;;;;;2.60;1.10;;;;;;;;;;5013328;28;20560;-59
2023/06/29 06:26:40;;;;;;;1.10;0.95;;;;;;;;;;5016364;28;20177;-59
2023/06/29 06:29:06;;;;;;;0.80;0.70;;;;;;;;;;5017938;28;20211;-58
2023/06/29 06:31:32;;;;;;;1.02;1.00;;;;;;;;;;5017997;28;20453;-58
2023/06/29 06:33:58;;;;;;;2.33;0.88;;;;;;;;;;5017883;28;20258;-58
2023/06/29 06:36:27;;;;;;;2.25;1.10;;;;;;;;;;5017029;28;20180;-58
2023/06/29 06:38:52;;;;;;;4.07;1.00;;;;;;;;;;5018398;28;20215;-58
2023/06/29 06:41:18;;;;;;;1.60;0.90;;;;;;;;;;5017493;28;20442;-60
2023/06/29 06:43:44;;;;;;;2.50;1.10;;;;;;;;;;5017784;28;20172;-58
2023/06/29 06:46:10;;;;;;;1.17;1.08;;;;;;;;;;4999292;28;20180;-58
2023/06/29 06:48:36;;;;;;;1.45;1.00;;;;;;;;;;5018061;28;20200;-58
2023/06/29 06:51:02;;;;;;;2.42;1.20;;;;;;;;;;5017733;28;20189;-58
2023/06/29 06:53:28;;;;;;;1.60;1.20;;;;;;;;;;5017768;28;20275;-58
2023/06/29 06:55:54;;;;;;;1.83;1.05;;;;;;;;;;5016192;28;20286;-58
2023/06/29 06:58:20;;;;;;;0.82;0.80;;;;;;;;;;5017860;28;20215;-58
2023/06/29 07:00:46;;;;;;;1.13;1.02;;;;;;;;;;5017144;28;20192;-57
2023/06/29 07:03:12;;;;;;;0.98;0.90;;;;;;;;;;5017257;28;20232;-58
2023/06/29 07:05:38;;;;;;;1.20;1.10;;;;;;;;;;5001846;28;20181;-58
2023/06/29 07:08:04;;;;;;;1.20;1.10;;;;;;;;;;5016826;28;20199;-59
2023/06/29 07:10:30;;;;;;;1.40;1.10;;;;;;;;;;5016941;28;20200;-58
2023/06/29 07:12:56;;;;;;;1.92;1.20;;;;;;;;;;5017269;28;20598;-58
2023/06/29 07:15:22;;;;;;;1.13;1.02;;;;;;;;;;5019439;28;20181;-58
2023/06/29 07:17:48;;;;;;;1.15;0.90;;;;;;;;;;5015630;28;20203;-57
2023/06/29 07:20:14;;;;;;;3.70;1.20;;;;;;;;;;5017112;28;20173;-58
2023/06/29 07:22:40;;;;;;;1.38;1.05;;;;;;;;;;5015006;28;20188;-57
2023/06/29 07:25:07;;;;;;;2.15;1.15;;;;;;;;;;5016959;28;20187;-57
2023/06/29 07:27:33;;;;;;;1.48;1.23;;;;;;;;;;5016592;28;20616;-58
2023/06/29 07:29:59;;;;;;;1.20;1.10;;;;;;;;;;5017145;28;20186;-58
2023/06/29 07:32:25;;;;;;;1.48;1.05;;;;;;;;;;5017017;28;20184;-57
2023/06/29 07:34:51;;;;;;;2.58;1.35;;;;;;;;;;5017378;28;20574;-57
2023/06/29 07:37:17;;;;;;;1.77;1.25;;;;;;;;;;5016185;28;20229;-57
2023/06/29 07:39:42;;;;;;;1.80;1.13;;;;;;;;;;5016746;28;20274;-57
2023/06/29 07:42:08;;;;;;;1.65;1.10;;;;;;;;;;5017023;28;20180;-59
2023/06/29 07:44:34;;;;;;;1.63;1.17;;;;;;;;;;5016292;28;20343;-58
2023/06/29 07:47:00;;;;;;;1.10;0.98;;;;;;;;;;5016437;28;20464;-58
2023/06/29 07:49:26;;;;;;;3.88;1.10;;;;;;;;;;5016845;28;20271;-59
2023/06/29 07:51:52;;;;;;;2.28;1.35;;;;;;;;;;5015812;28;20184;-58
2023/06/29 07:54:18;;;;;;;1.33;1.20;;;;;;;;;;5016162;28;20191;-58
2023/06/29 07:56:44;;;;;;;1.40;1.10;;;;;;;;;;5016173;28;20278;-58
2023/06/29 07:59:10;;;;;;;1.80;1.20;;;;;;;;;;5016423;28;20213;-58
2023/06/29 08:01:37;;;;;;;2.70;1.25;;;;;;;;;;5013961;28;20223;-58
2023/06/29 08:04:02;;;;;;;2.38;1.17;;;;;;;;;;5016217;28;20630;-58
2023/06/29 08:06:28;;;;;;;1.33;1.17;;;;;;;;;;5015539;28;20180;-58
2023/06/29 08:08:54;;;;;;;1.55;1.23;;;;;;;;;;5016145;28;20212;-58
2023/06/29 08:11:21;;;;;;;2.03;1.15;;;;;;;;;;5016116;28;20181;-58
2023/06/29 08:13:47;;;;;;;3.60;1.33;;;;;;;;;;4999076;28;20244;-57
2023/06/29 08:16:14;;;;;;;1.20;1.10;;;;;;;;;;5015173;28;20196;-57
2023/06/29 08:18:40;;;;;;;1.48;1.30;;;;;;;;;;5015111;28;20208;-57
2023/06/29 08:21:06;;;;;;;2.47;1.15;;;;;;;;;;5015731;28;20463;-58
2023/06/29 08:23:35;;;;;;;1.10;1.00;;;;;;;;;;5016053;28;20176;-57
2023/06/29 08:26:01;;;;;;;1.75;1.20;;;;;;;;;;5015065;28;20176;-57
2023/06/29 08:28:27;;;;;;;1.58;1.05;;;;;;;;;;5016091;28;20184;-57
2023/06/29 08:30:53;;;;;;;1.52;1.25;;;;;;;;;;5016233;28;20251;-57
2023/06/29 08:33:18;;;;;;;1.85;1.13;;;;;;;;;;5015735;28;20548;-58
2023/06/29 08:35:44;;;;;;;2.13;1.20;;;;;;;;;;5015531;28;20184;-58
2023/06/29 08:38:10;;;;;;;1.30;1.08;;;;;;;;;;5015155;28;20211;-57
2023/06/29 08:40:37;;;;;;;1.38;1.00;;;;;;;;;;5015695;28;20575;-57
2023/06/29 08:43:03;;;;;;;2.25;1.52;;;;;;;;;;5015508;28;20188;-58
2023/06/29 08:45:28;;;;;;;2.47;1.38;;;;;;;;;;5015425;28;20649;-58
2023/06/29 08:47:55;;;;;;;2.00;1.35;;;;;;;;;;5014415;28;20191;-58
2023/06/29 08:50:25;;;;;;;3.05;1.20;;;;;;;;;;5015571;28;20426;-58
2023/06/29 08:52:52;;;;;;;1.45;1.02;;;;;;;;;;5015175;28;20543;-58
2023/06/29 08:55:18;;;;;;;1.73;1.40;;;;;;;;;;5015094;28;20198;-58
2023/06/29 08:57:44;;;;;;;1.88;1.42;;;;;;;;;;5014759;28;20216;-58
2023/06/29 09:00:11;;;;;;;2.70;1.48;;;;;;;;;;5015592;28;20567;-58
2023/06/29 09:02:36;;;;;;;3.67;1.45;;;;;;;;;;5015020;28;20188;-57
2023/06/29 09:05:03;;;;;;;2.28;1.30;;;;;;;;;;5015681;28;20180;-57
2023/06/29 09:07:29;;;;;;;2.75;1.30;;;;;;;;;;5014587;28;20180;-57
2023/06/29 09:09:55;;;;;;;2.40;1.20;;;;;;;;;;5014638;28;20246;-57
2023/06/29 09:12:21;;;;;;;1.95;1.30;;;;;;;;;;5015108;28;20258;-57
2023/06/29 09:14:47;;;;;;;1.73;1.30;;;;;;;;;;5015186;28;20195;-57
2023/06/29 09:17:14;;;;;;;1.25;1.10;;;;;;;;;;5019129;28;20436;-57
2023/06/29 09:19:44;;;;;;;1.90;1.40;;;;;;;;;;5022643;28;20204;-58
2023/06/29 09:22:10;;;;;;;2.58;1.40;;;;;;;;;;5015414;28;20250;-58
2023/06/29 09:24:36;;;;;;;2.20;1.45;;;;;;;;;;5014443;28;20570;-57
2023/06/29 09:27:02;;;;;;;2.45;1.23;;;;;;;;;;5014776;28;20172;-57
2023/06/29 09:29:28;;;;;;;1.35;1.10;;;;;;;;;;5014892;28;20208;-57
2023/06/29 09:31:58;;;;;;;1.63;1.42;;;;;;;;;;5016421;28;20510;-57
2023/06/29 09:34:28;;;;;;;1.25;1.15;;;;;;;;;;5014701;28;20189;-57
2023/06/29 09:36:54;;;;;;;2.53;1.40;;;;;;;;;;5014289;28;20176;-57
2023/06/29 09:39:20;;;;;;;2.88;1.48;;;;;;;;;;5014597;28;20591;-57
2023/06/29 09:41:56;;;;;;;1.65;1.35;;;;;;;;;;5014775;28;20573;-57
2023/06/29 09:44:23;;;;;;;2.17;1.70;;;;;;;;;;5008656;28;20183;-58
2023/06/29 09:46:49;;;;;;;2.60;1.30;;;;;;;;;;5013272;28;20187;-57
2023/06/29 09:49:17;;;;;;;1.88;1.00;;;;;;;;;;5014183;28;20556;-57
2023/06/29 09:51:44;;;;;;;1.52;1.25;;;;;;;;;;5014562;28;20188;-57
2023/06/29 09:54:10;;;;;;;1.58;1.23;;;;;;;;;;5014045;28;20583;-57
2023/06/29 09:56:37;;;;;;;1.30;1.20;;;;;;;;;;5013856;28;20200;-58
2023/06/29 09:59:04;;;;;;;2.47;1.40;;;;;;;;;;5014389;28;20299;-57
2023/06/29 10:01:29;;;;;;;2.30;1.40;;;;;;;;;;5014959;28;20207;-57
2023/06/29 10:03:56;;;;;;;1.45;1.30;;;;;;;;;;5015159;28;20227;-57
2023/06/29 10:06:25;;;;;;;1.55;1.20;;;;;;;;;;5013690;28;20180;-57
2023/06/29 10:08:55;;;;;;;1.50;1.40;;;;;;;;;;5014561;28;20204;-57
2023/06/29 10:11:22;;;;;;;1.92;1.10;;;;;;;;;;5014460;28;20457;-57
2023/06/29 10:13:49;;;;;;;3.83;1.60;;;;;;;;;;5014042;28;20463;-57
2023/06/29 10:16:15;;;;;;;2.13;1.45;;;;;;;;;;5013618;28;20195;-58
2023/06/29 10:18:44;;;;;;;1.85;1.50;;;;;;;;;;5014656;28;20250;-57
2023/06/29 10:21:10;;;;;;;2.55;1.70;;;;;;;;;;5014027;28;20199;-57
2023/06/29 10:23:37;;;;;;;1.98;1.30;;;;;;;;;;5013903;28;20177;-57
2023/06/29 10:26:05;;;;;;;3.80;1.20;;;;;;;;;;5013434;28;20558;-57
2023/06/29 10:28:31;;;;;;;1.20;1.10;;;;;;;;;;5013830;28;20618;-58
2023/06/29 10:31:00;;;;;;;1.80;1.38;;;;;;;;;;5014197;28;20200;-57
2023/06/29 10:33:26;;;;;;;1.77;1.48;;;;;;;;;;5014466;28;20695;-57
2023/06/29 10:35:59;;;;;;;2.65;1.30;;;;;;;;;;5014106;28;20185;-57
2023/06/29 10:38:32;;;;;;;1.50;1.40;;;;;;;;;;5013964;28;20262;-57
2023/06/29 10:40:58;;;;;;;2.95;1.55;;;;;;;;;;5014157;28;20181;-58
2023/06/29 10:43:26;;;;;;;2.72;1.38;;;;;;;;;;5013593;28;20183;-58
2023/06/29 10:45:52;;;;;;;2.03;1.50;;;;;;;;;;5014017;28;20566;-58
2023/06/29 10:48:18;;;;;;;3.08;1.75;;;;;;;;;;5013374;28;20185;-57
2023/06/29 10:50:49;;;;;;;1.70;1.52;;;;;;;;;;5014048;28;20280;-57
2023/06/29 10:53:16;;;;;;;2.15;1.42;;;;;;;;;;5014035;28;20188;-57
2023/06/29 10:55:46;;;;;;;3.60;1.40;;;;;;;;;;5013230;28;20195;-57
2023/06/29 10:58:13;;;;;;;1.85;1.33;;;;;;;;;;5013231;28;20219;-57
2023/06/29 11:00:40;;;;;;;2.55;1.27;;;;;;;;;;5013857;28;20231;-57
2023/06/29 11:03:06;;;;;;;2.17;1.33;;;;;;;;;;5014133;28;20172;-56
2023/06/29 11:05:34;;;;;;;2.10;1.33;;;;;;;;;;5013716;28;20189;-56
2023/06/29 11:08:00;;;;;;;2.25;1.55;;;;;;;;;;5013219;28;20173;-56
2023/06/29 11:10:26;;;;;;;3.00;1.70;;;;;;;;;;5013603;28;20213;-57
2023/06/29 11:12:54;;;;;;;1.90;1.45;;;;;;;;;;5016547;28;20207;-57
2023/06/29 11:15:21;;;;;;;1.35;1.10;;;;;;;;;;5017530;28;20465;-57
2023/06/29 11:17:49;;;;;;;2.95;1.42;;;;;;;;;;5016868;28;20246;-56
2023/06/29 11:20:16;;;;;;;1.98;1.50;;;;;;;;;;5017694;28;20263;-57
2023/06/29 11:22:43;;;;;;;3.10;1.60;;;;;;;;;;5017034;28;20200;-57
2023/06/29 11:25:11;;;;;;;3.92;1.75;;;;;;;;;;5017135;28;20581;-57
2023/06/29 11:27:37;;;;;;;4.53;1.60;;;;;;;;;;5015362;28;20207;-57
2023/06/29 11:30:09;;;;;;;4.63;1.77;;;;;;;;;;5017323;28;20563;-57
2023/06/29 11:32:35;;;;;;;2.03;1.30;;;;;;;;;;5017984;28;20575;-57
2023/06/29 11:35:01;;;;;;;2.42;1.70;;;;;;;;;;5016571;28;20184;-57
2023/06/29 11:37:28;;;;;;;3.05;1.40;;;;;;;;;;5016565;28;20477;-57
2023/06/29 11:39:54;;;;;;;2.58;1.73;;;;;;;;;;5016980;28;20267;-57
2023/06/29 11:42:23;;;;;;;1.80;1.40;;;;;;;;;;5000111;28;20192;-57
2023/06/29 11:44:49;;;;;;;2.25;2.05;;;;;;;;;;5016267;28;20459;-57
2023/06/29 11:47:16;;;;;;;1.67;1.42;;;;;;;;;;5016857;28;20180;-57
2023/06/29 11:49:42;;;;;;;3.38;1.80;;;;;;;;;;5015284;28;20514;-56
2023/06/29 11:52:08;;;;;;;2.10;1.27;;;;;;;;;;5015848;28;20169;-57
2023/06/29 11:54:35;;;;;;;1.98;1.65;;;;;;;;;;5015403;28;20188;-56
2023/06/29 11:57:01;;;;;;;1.48;1.38;;;;;;;;;;5014885;28;20192;-56
2023/06/29 11:59:27;;;;;;;1.35;1.23;;;;;;;;;;5015719;28;20208;-56
2023/06/29 12:01:53;;;;;;;1.80;1.30;;;;;;;;;;5016083;28;20196;-56
2023/06/29 12:04:19;;;;;;;1.63;1.48;;;;;;;;;;5016858;28;20219;-56
2023/06/29 12:06:56;;;;;;;1.52;1.35;;;;;;;;;;5015490;28;20478;-57
2023/06/29 12:09:28;;;;;;;2.05;1.60;;;;;;;;;;5016448;28;20223;-57
2023/06/29 12:12:02;;;;;;;2.53;1.38;;;;;;;;;;5016183;28;20185;-57
2023/06/29 12:14:32;;;;;;;2.53;1.40;;;;;;;;;;5016030;28;20185;-57
2023/06/29 12:17:00;;;;;;;5.15;1.50;;;;;;;;;;5015447;28;20686;-57
2023/06/29 12:19:33;;;;;;;4.15;1.75;;;;;;;;;;5016374;28;20564;-57
2023/06/29 12:21:59;;;;;;;1.20;1.10;;;;;;;;;;5015434;28;20196;-56
2023/06/29 12:24:25;;;;;;;1.40;1.30;;;;;;;;;;5014950;28;20448;-56
2023/06/29 12:26:51;;;;;;;1.85;1.50;;;;;;;;;;5015226;28;20184;-57
2023/06/29 12:29:17;;;;;;;2.42;1.30;;;;;;;;;;5015899;28;20188;-56
2023/06/29 12:31:43;;;;;;;1.70;1.35;;;;;;;;;;5015986;28;20192;-56
2023/06/29 12:34:09;;;;;;;1.77;1.60;;;;;;;;;;5015799;28;20242;-57
2023/06/29 12:36:35;;;;;;;2.30;1.40;;;;;;;;;;5015147;28;20619;-57
2023/06/29 12:39:01;;;;;;;4.40;1.55;;;;;;;;;;5014699;28;20208;-57
2023/06/29 12:41:27;;;;;;;3.85;1.73;;;;;;;;;;5015683;28;20465;-57
2023/06/29 12:43:53;;;;;;;2.65;1.60;;;;;;;;;;5015876;28;20283;-56
2023/06/29 12:46:19;;;;;;;2.83;1.50;;;;;;;;;;5013639;28;20255;-56
2023/06/29 12:48:46;;;;;;;1.95;1.60;;;;;;;;;;5014608;28;20222;-56
2023/06/29 12:51:12;;;;;;;4.15;1.77;;;;;;;;;;5013318;28;20468;-57
2023/06/29 12:53:41;;;;;;;2.38;1.75;;;;;;;;;;5016961;28;20192;-56
2023/06/29 12:56:07;;;;;;;1.95;1.65;;;;;;;;;;5016037;28;20189;-56
2023/06/29 12:58:33;;;;;;;2.75;1.42;;;;;;;;;;5014802;28;20223;-56
2023/06/29 13:00:59;;;;;;;1.48;1.30;;;;;;;;;;5023052;28;20175;-56
2023/06/29 13:03:25;;;;;;;4.20;1.45;;;;;;;;;;5015471;28;20184;-56
2023/06/29 13:05:52;;;;;;;2.15;1.70;;;;;;;;;;5014989;28;20435;-56
2023/06/29 13:08:18;;;;;;;1.92;1.60;;;;;;;;;;5013582;28;20195;-56
2023/06/29 13:10:44;;;;;;;2.35;1.65;;;;;;;;;;5015143;28;20196;-57
2023/06/29 13:13:10;;;;;;;3.30;1.75;;;;;;;;;;5016773;28;20207;-57
2023/06/29 13:15:36;;;;;;;3.00;1.80;;;;;;;;;;5016595;28;20543;-56
2023/06/29 13:18:02;;;;;;;1.55;1.45;;;;;;;;;;5014792;28;20192;-57
2023/06/29 13:20:28;;;;;;;2.58;1.40;;;;;;;;;;5016106;28;20176;-57
2023/06/29 13:22:54;;;;;;;2.95;1.50;;;;;;;;;;5014817;28;20259;-56
2023/06/29 13:25:20;;;;;;;2.00;1.75;;;;;;;;;;5014919;28;20196;-56
2023/06/29 13:27:46;;;;;;;1.75;1.52;;;;;;;;;;5014817;28;20188;-56
2023/06/29 13:30:15;;;;;;;2.05;1.67;;;;;;;;;;5015242;28;20223;-56
2023/06/29 13:32:41;;;;;;;3.35;1.40;;;;;;;;;;5015085;28;20227;-56
2023/06/29 13:35:07;;;;;;;3.10;1.50;;;;;;;;;;5014775;28;20490;-56
2023/06/29 13:37:33;;;;;;;2.25;1.50;;;;;;;;;;5013519;28;20185;-57
2023/06/29 13:39:59;;;;;;;1.60;1.50;;;;;;;;;;5014897;28;20184;-56
2023/06/29 13:42:25;;;;;;;2.55;1.38;;;;;;;;;;5014724;28;20180;-57
2023/06/29 13:44:51;;;;;;;2.50;1.60;;;;;;;;;;5015017;28;20267;-57
2023/06/29 13:47:18;;;;;;;1.63;1.33;;;;;;;;;;5013850;28;20259;-56
2023/06/29 13:49:44;;;;;;;2.47;1.58;;;;;;;;;;5015065;28;20199;-56
2023/06/29 13:52:10;;;;;;;1.75;1.63;;;;;;;;;;5013837;28;20204;-56
2023/06/29 13:54:36;;;;;;;2.10;1.55;;;;;;;;;;5014572;28;20536;-56
2023/06/29 13:57:02;;;;;;;2.58;1.77;;;;;;;;;;5013828;28;20188;-56
2023/06/29 13:59:28;;;;;;;2.72;1.90;;;;;;;;;;5014968;28;20613;-56
2023/06/29 14:01:54;;;;;;;3.08;1.60;;;;;;;;;;5014350;28;20180;-56
2023/06/29 14:04:20;;;;;;;2.47;1.65;;;;;;;;;;5014559;28;20296;-56
2023/06/29 14:06:48;;;;;;;1.60;1.50;;;;;;;;;;5013579;28;20267;-56
2023/06/29 14:09:15;;;;;;;3.45;1.67;;;;;;;;;;5013304;28;20183;-56
2023/06/29 14:11:41;;;;;;;3.25;1.90;;;;;;;;;;5014731;28;20185;-57
2023/06/29 14:14:07;;;;;;;2.25;1.63;;;;;;;;;;5014689;28;20188;-57
2023/06/29 14:16:33;;;;;;;2.65;1.70;;;;;;;;;;5014103;28;20188;-56
2023/06/29 14:19:00;;;;;;;1.40;1.30;;;;;;;;;;5014373;28;20254;-56
2023/06/29 14:21:26;;;;;;;1.88;1.52;;;;;;;;;;5014098;28;20223;-56
2023/06/29 14:23:51;;;;;;;2.88;1.63;;;;;;;;;;5014553;28;20219;-56
2023/06/29 14:26:17;;;;;;;1.80;1.33;;;;;;;;;;5013309;28;20267;-56
2023/06/29 14:28:44;;;;;;;1.67;1.55;;;;;;;;;;5013929;28;20204;-57
2023/06/29 14:31:10;;;;;;;3.67;2.00;;;;;;;;;;5014219;28;20212;-56
2023/06/29 14:33:36;;;;;;;1.88;1.40;;;;;;;;;;5014070;28;20926;-56
2023/06/29 14:36:06;;;;;;;3.95;1.60;;;;;;;;;;5013201;28;20263;-56
2023/06/29 14:38:33;;;;;;;3.22;1.67;;;;;;;;;;5013821;28;20902;-57